Myrtle Beach, South Carolina
Current Conditions -  °F | °C
As of 7:50 AM on Thursday 27 Nov 2014 (Local Time) from KMYR Reporting Station
Few Clouds Few Clouds  
Wind Chill: 42°   Ceiling: Unl
Heat Index: 46°   Visibility: 10mi
Dew Point: 36°   Wind: 9mph
Humidity: 66%   Direction: 260°W
Pressure: 30.06"   Gusts: NA
Location:  33.69°N, 78.88°W
Report Text: KMYR 271250Z 26008KT 10SM FEW100 08/02 A3006
Loading
Personal Weather Stations






























Interactive Weather Map New forecast layout! Learn more

10-Day Weather Forecast

Advertisements
Track Severe Weather on mobile